createdAt,value
2022-12-04T00:01:26.775Z,94818.25
2022-12-04T00:03:56.380Z,94809.31
2022-12-04T00:06:27.225Z,94808.84
2022-12-04T00:08:55.979Z,94803.47
2022-12-04T00:11:26.473Z,94804.22
2022-12-04T00:13:54.559Z,94806.41
2022-12-04T00:16:25.163Z,94799.84
2022-12-04T00:18:54.571Z,94804.41
2022-12-04T00:21:24.310Z,94807.94
2022-12-04T00:23:55.128Z,94802.41
2022-12-04T00:26:25.709Z,94803.41
2022-12-04T00:28:54.184Z,94810.78
2022-12-04T00:31:24.659Z,94807.06
2022-12-04T00:33:53.686Z,94803.13
2022-12-04T00:36:24.213Z,94815.13
2022-12-04T00:38:54.181Z,94828.75
2022-12-04T00:41:25.814Z,94818.06
2022-12-04T00:43:54.022Z,94826.88
2022-12-04T00:46:23.168Z,94832.59
2022-12-04T00:48:52.260Z,94832.22
2022-12-04T00:51:22.851Z,94819.38
2022-12-04T00:53:53.805Z,94821.75
2022-12-04T00:56:23.994Z,94813.78
2022-12-04T00:58:53.736Z,94825.94
2022-12-04T01:01:22.849Z,94814.00
2022-12-04T01:03:51.568Z,94807.19
2022-12-04T01:06:22.105Z,94809.84
2022-12-04T01:08:50.894Z,94816.59
2022-12-04T01:11:21.788Z,94813.38
2022-12-04T01:13:50.197Z,94813.25
2022-12-04T01:16:21.507Z,94812.63
2022-12-04T01:18:50.206Z,94817.38
2022-12-04T01:21:18.701Z,94822.69
2022-12-04T01:23:47.027Z,94831.59
2022-12-04T01:26:15.751Z,94828.19
2022-12-04T01:28:45.481Z,94822.34
2022-12-04T01:31:15.940Z,94833.09
2022-12-04T01:33:44.551Z,94822.16
2022-12-04T01:36:15.263Z,94834.56
2022-12-04T01:38:43.696Z,94831.47
2022-12-04T01:41:13.648Z,94824.59
2022-12-04T01:43:42.384Z,94821.59
2022-12-04T01:46:12.943Z,94810.03
2022-12-04T01:48:44.806Z,94809.09
2022-12-04T01:51:17.899Z,94809.78
2022-12-04T01:53:50.825Z,94802.22
2022-12-04T01:56:20.733Z,94812.63
2022-12-04T01:58:52.245Z,94804.59
2022-12-04T02:01:22.078Z,94798.84
2022-12-04T02:03:51.215Z,94801.88
2022-12-04T02:06:19.300Z,94794.44
2022-12-04T02:08:47.651Z,94789.06
2022-12-04T02:11:31.888Z,94783.88
2022-12-04T02:14:09.154Z,94786.88
2022-12-04T02:16:48.175Z,94772.69
2022-12-04T02:19:37.265Z,94779.13
2022-12-04T02:22:16.093Z,94782.03
2022-12-04T02:24:53.824Z,94775.06
2022-12-04T02:27:47.609Z,94784.44
2022-12-04T02:30:16.353Z,94775.06
2022-12-04T02:32:48.381Z,94776.06
2022-12-04T02:35:22.071Z,94759.09
2022-12-04T02:37:55.581Z,94766.50
2022-12-04T02:40:29.037Z,94766.53
2022-12-04T02:43:04.168Z,94751.75
2022-12-04T02:45:38.459Z,94756.53
2022-12-04T02:48:08.930Z,94753.16
2022-12-04T02:50:41.618Z,94750.28
2022-12-04T02:53:14.724Z,94745.34
2022-12-04T02:55:46.924Z,94734.13
2022-12-04T02:58:21.511Z,94726.84
2022-12-04T03:00:51.694Z,94727.19
2022-12-04T03:03:23.284Z,94740.53
2022-12-04T03:05:58.401Z,94743.91
2022-12-04T03:08:32.411Z,94744.69
2022-12-04T03:11:01.915Z,94746.31
2022-12-04T03:13:37.601Z,94748.69
2022-12-04T03:16:09.586Z,94743.53
2022-12-04T03:18:41.987Z,94750.81
2022-12-04T03:21:18.831Z,94753.19
2022-12-04T03:23:51.911Z,94745.63
2022-12-04T03:26:25.202Z,94746.03
2022-12-04T03:29:00.909Z,94747.50
2022-12-04T03:31:36.739Z,94748.50
2022-12-04T03:34:07.405Z,94760.53
2022-12-04T03:36:40.057Z,94754.34
2022-12-04T03:39:18.971Z,94749.88
2022-12-04T03:41:58.484Z,94743.47
2022-12-04T03:44:36.670Z,94746.25
2022-12-04T03:47:09.476Z,94756.72
2022-12-04T03:49:44.230Z,94747.31
2022-12-04T03:52:17.642Z,94739.75
2022-12-04T03:54:50.876Z,94746.78
2022-12-04T03:57:23.919Z,94742.63
2022-12-04T03:59:59.982Z,94747.38
2022-12-04T04:02:34.533Z,94742.75
2022-12-04T04:05:03.813Z,94747.19
2022-12-04T04:07:35.942Z,94742.75
2022-12-04T04:10:08.939Z,94742.50
2022-12-04T04:12:42.509Z,94737.53
2022-12-04T04:15:32.557Z,94746.31
2022-12-04T04:18:20.108Z,94745.50
2022-12-04T04:21:18.518Z,94740.94
2022-12-04T04:24:08.394Z,94736.19
2022-12-04T04:26:46.110Z,94738.16
2022-12-04T04:29:14.723Z,94747.00
2022-12-04T04:31:51.533Z,94743.81
2022-12-04T04:34:24.277Z,94755.59
2022-12-04T04:37:00.168Z,94755.59
2022-12-04T04:39:33.035Z,94746.03
2022-12-04T04:42:07.610Z,94737.84
2022-12-04T04:44:42.335Z,94741.88
2022-12-04T04:47:18.221Z,94750.84
2022-12-04T04:49:50.272Z,94754.69
2022-12-04T04:52:21.415Z,94752.25
2022-12-04T04:54:49.542Z,94748.66
2022-12-04T04:57:27.318Z,94746.28
2022-12-04T04:59:55.767Z,94762.03
2022-12-04T05:02:26.739Z,94751.72
2022-12-04T05:04:55.589Z,94753.47
2022-12-04T05:07:23.674Z,94746.09
2022-12-04T05:09:51.803Z,94739.47
2022-12-04T05:12:19.873Z,94744.88
2022-12-04T05:14:48.329Z,94739.88
2022-12-04T05:17:17.004Z,94726.66
2022-12-04T05:19:57.093Z,94727.88
2022-12-04T05:22:28.054Z,94726.88
2022-12-04T05:24:56.695Z,94728.66
2022-12-04T05:27:25.924Z,94725.31
2022-12-04T05:29:54.785Z,94725.84
2022-12-04T05:32:24.355Z,94722.47
2022-12-04T05:34:55.424Z,94722.84
2022-12-04T05:37:24.080Z,94721.09
2022-12-04T05:39:52.713Z,94726.03
2022-12-04T05:42:21.026Z,94725.59
2022-12-04T05:44:49.793Z,94718.84
2022-12-04T05:47:18.042Z,94702.03
2022-12-04T05:49:46.113Z,94706.25
2022-12-04T05:52:15.976Z,94709.38
2022-12-04T05:54:44.036Z,94703.38
2022-12-04T05:57:12.074Z,94698.41
2022-12-04T05:59:40.444Z,94720.69
2022-12-04T06:02:08.528Z,94724.84
2022-12-04T06:04:38.058Z,94710.91
2022-12-04T06:07:06.881Z,94718.69
2022-12-04T06:09:36.300Z,94737.94
2022-12-04T06:12:05.627Z,94754.78
2022-12-04T06:14:39.097Z,94747.63
2022-12-04T06:17:08.465Z,94741.72
2022-12-04T06:19:36.702Z,94752.91
2022-12-04T06:22:05.109Z,94741.94
2022-12-04T06:24:33.195Z,94742.16
2022-12-04T06:29:50.822Z,94750.34
2022-12-04T06:32:21.694Z,94742.03
2022-12-04T06:34:52.598Z,94731.00
2022-12-04T06:37:20.840Z,94722.19
2022-12-04T06:39:49.093Z,94724.59
2022-12-04T06:42:18.922Z,94726.44
2022-12-04T06:44:47.061Z,94728.94
2022-12-04T06:47:15.204Z,94744.31
2022-12-04T06:49:43.350Z,94746.25
2022-12-04T06:52:11.487Z,94752.03
2022-12-04T06:54:39.563Z,94752.47
2022-12-04T06:57:07.666Z,94750.88
2022-12-04T06:59:37.261Z,94741.09
2022-12-04T07:02:05.574Z,94751.53
2022-12-04T07:04:33.586Z,94757.06
2022-12-04T07:07:02.280Z,94741.50
2022-12-04T07:09:30.769Z,94751.47
2022-12-04T07:11:58.836Z,94768.88
2022-12-04T07:14:26.956Z,94758.34
2022-12-04T07:16:56.807Z,94759.53
2022-12-04T07:19:25.209Z,94764.13
2022-12-04T07:21:53.493Z,94743.78
2022-12-04T07:24:21.537Z,94745.00
2022-12-04T07:26:49.737Z,94748.66
2022-12-04T07:29:17.842Z,94757.41
2022-12-04T07:31:46.061Z,94759.09
2022-12-04T07:34:15.606Z,94769.16
2022-12-04T07:36:43.660Z,94770.50
2022-12-04T07:39:11.759Z,94770.78
2022-12-04T07:41:40.195Z,94755.53
2022-12-04T07:44:09.594Z,94762.53
2022-12-04T07:46:37.654Z,94749.41
2022-12-04T07:49:05.897Z,94736.59
2022-12-04T07:51:36.602Z,94737.28
2022-12-04T07:54:04.913Z,94737.44
2022-12-04T07:56:33.570Z,94732.38
2022-12-04T07:59:02.072Z,94754.38
2022-12-04T08:01:30.373Z,94768.13
2022-12-04T08:04:00.556Z,94752.94
2022-12-04T08:06:30.181Z,94758.50
2022-12-04T08:09:03.531Z,94743.88
2022-12-04T08:11:35.047Z,94756.59
2022-12-04T08:14:05.270Z,94758.06
2022-12-04T08:16:34.736Z,94751.56
2022-12-04T08:19:04.565Z,94751.34
2022-12-04T08:21:33.638Z,94749.63
2022-12-04T08:24:03.494Z,94755.47
2022-12-04T08:26:33.620Z,94760.47
2022-12-04T08:29:03.064Z,94767.22
2022-12-04T08:31:33.735Z,94756.78
2022-12-04T08:34:03.806Z,94760.22
2022-12-04T08:36:32.203Z,94769.03
2022-12-04T08:39:00.494Z,94768.59
2022-12-04T08:41:30.235Z,94761.75
2022-12-04T08:43:59.235Z,94776.81
2022-12-04T08:46:29.077Z,94775.72
2022-12-04T08:48:58.949Z,94772.97
2022-12-04T08:51:29.553Z,94780.75
2022-12-04T08:53:59.863Z,94784.47
2022-12-04T08:56:31.250Z,94773.47
2022-12-04T08:59:00.791Z,94785.06
2022-12-04T09:01:29.879Z,94779.28
2022-12-04T09:03:59.059Z,94772.69
2022-12-04T09:06:27.147Z,94780.91
2022-12-04T09:08:55.941Z,94774.50
2022-12-04T09:11:26.779Z,94758.13
2022-12-04T09:13:56.709Z,94756.91
2022-12-04T09:16:27.018Z,94746.06
2022-12-04T09:18:55.556Z,94744.69
2022-12-04T09:21:25.278Z,94745.75
2022-12-04T09:23:53.801Z,94729.09
2022-12-04T09:26:24.698Z,94737.94
2022-12-04T09:28:53.977Z,94723.09
2022-12-04T09:31:24.781Z,94725.31
2022-12-04T09:33:53.613Z,94713.56
2022-12-04T09:36:22.151Z,94728.53
2022-12-04T09:38:52.030Z,94723.72
2022-12-04T09:41:50.327Z,94724.16
2022-12-04T09:44:22.707Z,94740.13
2022-12-04T09:46:56.418Z,94727.16
2022-12-04T09:49:30.439Z,94733.56
2022-12-04T09:52:01.698Z,94736.75
2022-12-04T09:54:35.204Z,94746.94
2022-12-04T09:57:09.806Z,94746.75
2022-12-04T09:59:39.099Z,94746.78
2022-12-04T10:02:22.470Z,94728.75
2022-12-04T10:04:50.897Z,94727.97
2022-12-04T10:07:26.288Z,94730.75
2022-12-04T10:10:01.843Z,94717.75
2022-12-04T10:12:39.719Z,94716.75
2022-12-04T10:15:24.167Z,94714.16
2022-12-04T10:18:04.564Z,94713.94
2022-12-04T10:20:49.904Z,94732.78
2022-12-04T10:23:26.036Z,94726.78
2022-12-04T10:25:56.412Z,94716.78
2022-12-04T10:28:30.990Z,94713.78
2022-12-04T10:31:02.565Z,94698.50
2022-12-04T10:33:37.963Z,94687.72
2022-12-04T10:36:07.387Z,94669.72
2022-12-04T10:38:43.216Z,94655.31
2022-12-04T10:41:17.105Z,94670.13
2022-12-04T10:43:47.512Z,94682.50
2022-12-04T10:46:19.891Z,94683.13
2022-12-04T10:48:53.129Z,94684.53
2022-12-04T10:51:22.948Z,94695.94
2022-12-04T10:53:51.808Z,94699.94
2022-12-04T10:56:22.223Z,94687.13
2022-12-04T10:58:58.190Z,94671.91
2022-12-04T11:01:27.996Z,94668.53
2022-12-04T11:04:03.615Z,94653.91
2022-12-04T11:06:32.028Z,94666.69
2022-12-04T11:09:01.324Z,94655.69
2022-12-04T11:11:31.272Z,94666.13
2022-12-04T11:14:04.562Z,94695.75
2022-12-04T11:16:39.233Z,94695.53
2022-12-04T11:19:21.534Z,94696.72
2022-12-04T11:21:50.419Z,94669.72
2022-12-04T11:24:23.559Z,94668.06
2022-12-04T11:26:53.505Z,94665.25
2022-12-04T11:29:32.403Z,94664.06
2022-12-04T11:32:07.210Z,94649.06
2022-12-04T11:34:41.620Z,94639.25
2022-12-04T11:37:21.934Z,94645.28
2022-12-04T11:39:51.220Z,94618.06
2022-12-04T11:42:24.342Z,94618.91
2022-12-04T11:44:55.502Z,94604.88
2022-12-04T11:47:26.258Z,94618.78
2022-12-04T11:50:20.233Z,94593.22
2022-12-04T11:53:05.638Z,94610.03
2022-12-04T11:55:42.956Z,94604.06
2022-12-04T11:58:32.566Z,94602.28
2022-12-04T12:01:10.695Z,94616.28
2022-12-04T12:03:45.470Z,94626.25
2022-12-04T12:06:34.360Z,94638.03
2022-12-04T12:09:23.531Z,94624.44
2022-12-04T12:12:01.822Z,94628.69
2022-12-04T12:14:35.610Z,94632.47
2022-12-04T12:17:14.898Z,94647.69
2022-12-04T12:20:06.644Z,94643.25
2022-12-04T12:22:53.361Z,94645.84
2022-12-04T12:25:26.166Z,94640.81
2022-12-04T12:28:11.833Z,94640.63
2022-12-04T12:30:49.190Z,94625.56
2022-12-04T12:33:21.473Z,94615.94
2022-12-04T12:35:59.661Z,94626.53
2022-12-04T12:38:35.851Z,94617.38
2022-12-04T12:41:09.761Z,94618.16
2022-12-04T12:43:39.544Z,94618.22
2022-12-04T12:46:15.549Z,94614.00
2022-12-04T12:48:56.602Z,94617.81
2022-12-04T12:51:35.273Z,94607.38
2022-12-04T12:54:13.310Z,94611.41
2022-12-04T12:56:49.587Z,94603.34
2022-12-04T12:59:22.859Z,94602.50
2022-12-04T13:04:49.390Z,94593.13
2022-12-04T13:07:32.663Z,94591.56
2022-12-04T13:10:08.844Z,94581.66
2022-12-04T13:12:44.724Z,94582.69
2022-12-04T13:15:16.757Z,94573.84
2022-12-04T13:17:46.920Z,94570.28
2022-12-04T13:20:21.226Z,94584.41
2022-12-04T13:23:13.627Z,94588.16
2022-12-04T13:25:53.957Z,94591.31
2022-12-04T13:28:36.479Z,94594.03
2022-12-04T13:31:13.983Z,94591.78
2022-12-04T13:34:05.830Z,94581.06
2022-12-04T13:37:00.038Z,94590.69
2022-12-04T13:40:05.270Z,94606.06
2022-12-04T13:42:34.789Z,94616.97
2022-12-04T13:45:10.887Z,94628.69
2022-12-04T13:47:39.370Z,94628.44
2022-12-04T13:50:29.233Z,94627.56
2022-12-04T13:52:58.471Z,94620.16
2022-12-04T13:55:29.782Z,94617.38
2022-12-04T13:58:02.154Z,94615.47
2022-12-04T14:00:32.884Z,94616.53
2022-12-04T14:03:05.782Z,94614.16
2022-12-04T14:05:42.000Z,94610.97
2022-12-04T14:08:25.643Z,94621.63
2022-12-04T14:11:03.544Z,94627.25
2022-12-04T14:13:44.440Z,94617.47
2022-12-04T14:16:22.329Z,94618.81
2022-12-04T14:18:53.920Z,94623.28
2022-12-04T14:21:22.377Z,94625.81
2022-12-04T14:23:52.283Z,94625.28
2022-12-04T14:26:37.348Z,94623.19
2022-12-04T14:29:34.144Z,94612.00
2022-12-04T14:32:10.228Z,94616.56
2022-12-04T14:34:39.038Z,94626.94
2022-12-04T14:37:08.126Z,94646.13
2022-12-04T14:39:40.961Z,94649.31
2022-12-04T14:42:15.036Z,94649.59
2022-12-04T14:44:46.053Z,94658.16
2022-12-04T14:47:26.382Z,94652.38
2022-12-04T14:50:10.377Z,94659.38
2022-12-04T14:52:44.745Z,94663.03
2022-12-04T14:55:23.901Z,94664.25
2022-12-04T14:57:59.038Z,94662.28
2022-12-04T15:00:29.579Z,94668.06
2022-12-04T15:03:00.147Z,94668.47
2022-12-04T15:05:30.615Z,94663.47
2022-12-04T15:08:02.491Z,94668.69
2022-12-04T15:10:50.043Z,94684.91
2022-12-04T15:13:26.795Z,94678.31
2022-12-04T15:15:56.660Z,94687.31
2022-12-04T15:18:25.147Z,94682.69
2022-12-04T15:20:59.575Z,94680.91
2022-12-04T15:23:32.171Z,94683.31
2022-12-04T15:26:02.784Z,94682.31
2022-12-04T15:28:36.268Z,94682.50
2022-12-04T15:31:11.336Z,94681.72
2022-12-04T15:33:41.578Z,94684.53
2022-12-04T15:36:13.996Z,94681.34
2022-12-04T15:38:42.511Z,94685.13
2022-12-04T15:41:30.393Z,94679.91
2022-12-04T15:43:58.753Z,94677.53
2022-12-04T15:46:33.569Z,94679.91
2022-12-04T15:49:17.338Z,94676.31
2022-12-04T15:51:47.099Z,94674.31
2022-12-04T15:54:23.007Z,94671.13
2022-12-04T15:57:03.123Z,94649.66
2022-12-04T15:59:32.229Z,94657.50
2022-12-04T16:02:07.350Z,94654.69
2022-12-04T16:04:41.059Z,94660.69
2022-12-04T16:07:21.986Z,94654.47
2022-12-04T16:10:02.828Z,94651.22
2022-12-04T16:12:33.454Z,94646.63
2022-12-04T16:15:01.624Z,94662.47
2022-12-04T16:17:33.547Z,94648.03
2022-12-04T16:20:05.176Z,94637.81
2022-12-04T16:22:33.361Z,94650.66
2022-12-04T16:25:01.499Z,94649.81
2022-12-04T16:27:29.698Z,94657.84
2022-12-04T16:29:58.192Z,94653.81
2022-12-04T16:32:31.616Z,94653.44
2022-12-04T16:35:01.623Z,94658.28
2022-12-04T16:37:30.018Z,94665.06
2022-12-04T16:39:58.356Z,94660.88
2022-12-04T16:42:29.542Z,94664.06
2022-12-04T16:44:59.159Z,94667.84
2022-12-04T16:47:27.477Z,94668.84
2022-12-04T16:49:56.058Z,94674.47
2022-12-04T16:52:28.325Z,94673.25
2022-12-04T16:55:00.469Z,94674.69
2022-12-04T16:57:31.259Z,94681.28
2022-12-04T16:59:59.484Z,94685.06
2022-12-04T17:02:28.370Z,94675.22
2022-12-04T17:04:58.123Z,94682.28
2022-12-04T17:07:27.845Z,94686.69
2022-12-04T17:09:56.011Z,94687.28
2022-12-04T17:12:24.179Z,94680.88
2022-12-04T17:14:52.310Z,94684.25
2022-12-04T17:17:20.756Z,94688.25
2022-12-04T17:19:49.071Z,94684.06
2022-12-04T17:22:20.983Z,94681.88
2022-12-04T17:24:55.733Z,94682.66
2022-12-04T17:27:25.417Z,94683.06
2022-12-04T17:29:53.598Z,94685.09
2022-12-04T17:32:21.875Z,94684.47
2022-12-04T17:34:50.181Z,94688.91
2022-12-04T17:37:18.281Z,94698.31
2022-12-04T17:39:46.869Z,94709.72
2022-12-04T17:42:17.662Z,94701.94
2022-12-04T17:44:46.446Z,94697.53
2022-12-04T17:47:14.774Z,94702.31
2022-12-04T17:49:42.948Z,94687.88
2022-12-04T17:52:12.036Z,94701.50
2022-12-04T17:54:40.181Z,94695.50
2022-12-04T17:57:08.365Z,94702.34
2022-12-04T17:59:38.324Z,94695.88
2022-12-04T18:02:06.387Z,94687.28
2022-12-04T18:04:34.528Z,94691.88
2022-12-04T18:07:02.659Z,94700.91
2022-12-04T18:09:31.527Z,94704.13
2022-12-04T18:12:01.572Z,94702.53
2022-12-04T18:14:30.876Z,94697.69
2022-12-04T18:17:01.452Z,94705.31
2022-12-04T18:19:30.967Z,94713.13
2022-12-04T18:21:59.935Z,94709.13
2022-12-04T18:24:28.302Z,94703.88
2022-12-04T18:26:56.375Z,94703.94
2022-12-04T18:29:26.501Z,94705.91
2022-12-04T18:31:55.159Z,94720.72
2022-12-04T18:34:24.628Z,94714.13
2022-12-04T18:36:53.239Z,94716.78
2022-12-04T18:39:23.101Z,94717.75
2022-12-04T18:41:51.470Z,94723.78
2022-12-04T18:44:19.875Z,94728.78
2022-12-04T18:46:48.265Z,94728.34
2022-12-04T18:49:16.457Z,94713.34
2022-12-04T18:51:49.917Z,94723.78
2022-12-04T18:54:20.277Z,94730.97
2022-12-04T18:56:48.704Z,94742.19
2022-12-04T18:59:18.516Z,94741.81
2022-12-04T19:01:50.233Z,94744.59
2022-12-04T19:04:20.375Z,94744.41
2022-12-04T19:06:54.616Z,94749.63
2022-12-04T19:09:40.841Z,94758.41
2022-12-04T19:12:13.589Z,94761.00
2022-12-04T19:14:42.187Z,94758.81
2022-12-04T19:17:11.556Z,94757.22
2022-12-04T19:19:40.091Z,94753.22
2022-12-04T19:22:09.928Z,94765.63
2022-12-04T19:24:38.233Z,94768.63
2022-12-04T19:27:11.255Z,94775.03
2022-12-04T19:29:39.785Z,94781.88
2022-12-04T19:32:08.910Z,94778.44
2022-12-04T19:34:37.507Z,94781.66
2022-12-04T19:37:06.788Z,94777.66
2022-12-04T19:39:36.662Z,94763.44
2022-12-04T19:42:04.962Z,94777.88
2022-12-04T19:44:48.475Z,94787.44
2022-12-04T19:47:17.543Z,94794.47
2022-12-04T19:49:46.605Z,94795.25
2022-12-04T19:52:14.875Z,94793.88
2022-12-04T19:54:44.692Z,94796.47
2022-12-04T19:57:14.723Z,94799.91
2022-12-04T19:59:46.341Z,94801.50
2022-12-04T20:02:15.924Z,94806.28
2022-12-04T20:04:44.492Z,94810.50
2022-12-04T20:07:13.197Z,94804.88
2022-12-04T20:09:44.899Z,94806.69
2022-12-04T20:12:16.912Z,94814.69
2022-12-04T20:14:45.257Z,94807.28
2022-12-04T20:17:13.515Z,94805.63
2022-12-04T20:19:41.858Z,94806.63
2022-12-04T20:22:09.804Z,94797.06
2022-12-04T20:24:38.552Z,94798.88
2022-12-04T20:27:06.741Z,94805.66
2022-12-04T20:29:36.685Z,94814.66
2022-12-04T20:32:04.845Z,94803.66
2022-12-04T20:34:38.811Z,94800.28
2022-12-04T20:37:11.404Z,94801.09
2022-12-04T20:39:40.320Z,94806.84
2022-12-04T20:42:08.461Z,94809.03
2022-12-04T20:44:37.984Z,94824.06
2022-12-04T20:47:06.143Z,94818.44
2022-12-04T20:49:34.350Z,94817.47
2022-12-04T20:52:02.813Z,94824.28
2022-12-04T20:54:31.018Z,94827.44
2022-12-04T20:56:59.202Z,94817.47
2022-12-04T20:59:27.467Z,94825.28
2022-12-04T21:01:56.982Z,94832.28
2022-12-04T21:04:25.169Z,94819.84
2022-12-04T21:06:53.433Z,94832.88
2022-12-04T21:09:23.826Z,94832.09
2022-12-04T21:11:53.875Z,94832.69
2022-12-04T21:14:41.402Z,94831.13
2022-12-04T21:17:16.689Z,94831.72
2022-12-04T21:19:47.073Z,94831.53
2022-12-04T21:22:15.359Z,94833.69
2022-12-04T21:24:44.132Z,94840.72
2022-12-04T21:27:17.391Z,94850.53
2022-12-04T21:29:47.298Z,94848.69
2022-12-04T21:32:20.272Z,94849.69
2022-12-04T21:34:48.772Z,94851.09
2022-12-04T21:37:16.973Z,94859.25
2022-12-04T21:39:45.226Z,94854.50
2022-12-04T21:42:39.613Z,94858.31
2022-12-04T21:45:08.891Z,94859.28
2022-12-04T21:47:38.647Z,94864.88
2022-12-04T21:50:08.205Z,94870.31
2022-12-04T21:52:36.716Z,94871.53
2022-12-04T21:55:05.226Z,94880.72
2022-12-04T21:57:33.288Z,94871.31
2022-12-04T22:00:01.666Z,94872.53
2022-12-04T22:02:29.862Z,94871.56
2022-12-04T22:04:59.332Z,94870.75
2022-12-04T22:07:27.487Z,94862.56
2022-12-04T22:09:55.953Z,94865.94
2022-12-04T22:12:48.484Z,94872.94
2022-12-04T22:15:12.642Z,94879.19
2022-12-04T22:17:41.427Z,94871.38
2022-12-04T22:20:11.708Z,94877.97
2022-12-04T22:22:39.778Z,94870.72
2022-12-04T22:25:08.886Z,94870.38
2022-12-04T22:27:37.163Z,94879.16
2022-12-04T22:30:07.291Z,94880.59
2022-12-04T22:32:35.671Z,94891.03
2022-12-04T22:35:03.838Z,94892.81
2022-12-04T22:37:33.498Z,94890.59
2022-12-04T22:40:01.633Z,94882.81
2022-12-04T22:42:29.672Z,94890.31
2022-12-04T22:44:57.867Z,94890.13
2022-12-04T22:47:25.895Z,94888.00
2022-12-04T22:49:54.073Z,94878.81
2022-12-04T22:52:22.440Z,94887.44
2022-12-04T22:54:52.832Z,94878.59
2022-12-04T22:57:20.995Z,94879.00
2022-12-04T22:59:49.145Z,94884.00
2022-12-04T23:02:17.331Z,94891.03
2022-12-04T23:04:45.699Z,94891.81
2022-12-04T23:07:13.921Z,94895.22
2022-12-04T23:09:42.239Z,94897.16
2022-12-04T23:12:11.612Z,94895.75
2022-12-04T23:14:39.811Z,94903.59
2022-12-04T23:17:08.039Z,94892.38
2022-12-04T23:19:36.602Z,94887.97
2022-12-04T23:22:04.917Z,94883.44
2022-12-04T23:24:33.392Z,94870.50
2022-12-04T23:27:01.537Z,94869.00
2022-12-04T23:32:19.087Z,94881.25
2022-12-04T23:34:47.257Z,94883.53
2022-12-04T23:37:15.517Z,94876.69
2022-12-04T23:39:43.732Z,94893.81
2022-12-04T23:42:11.776Z,94914.13
2022-12-04T23:44:41.370Z,94910.41
2022-12-04T23:47:09.552Z,94917.66
2022-12-04T23:49:37.566Z,94916.84
2022-12-04T23:52:06.082Z,94906.84
2022-12-04T23:54:35.969Z,94914.22
2022-12-04T23:57:04.122Z,94920.84
2022-12-04T23:59:32.160Z,94936.06
